Flight Track Log - Related Links

Times and Time Zones

All times are in EDT time to prevent confusion due to time zone crossing. See the CTL13 flight status page for this flight to view local times or setup timezone preferences in your user account.

Time Position Orientation Groundspeed Altitude Reporting Facility
EDT Latitude Longitude Course Direction KTS MPH feet Rate Location/Type
Mon 07:57:57 PM 39.9667 -86.3167 324° Northwest 159 183 2,600  Level Indianapolis TRACON
Mon 07:59:07 PM 40.0097 -86.3578 324° Northwest 150 173 3,300 591 Climbing Indianapolis Center
Mon 08:00:09 PM 40.0453 -86.3875 327° Northwest 151 174 3,900 585 Climbing Indianapolis Center
Mon 08:01:10 PM 40.0847 -86.3850 North 145 167 4,500 443 Climbing Indianapolis Center
Mon 08:02:11 PM 40.1200 -86.4222 321° Northwest 162 186 4,800 197 Climbing Indianapolis Center
Mon 08:03:12 PM 40.1519 -86.4722 310° West 175 201 4,900 273 Climbing Indianapolis Center
Mon 08:04:23 PM 40.1892 -86.5300 310° West 175 201 5,400 451 Climbing Chicago Center
Mon 08:05:25 PM 40.2272 -86.5833 313° West 168 193 5,900 290 Climbing Chicago Center
Mon 08:06:27 PM 40.2586 -86.6286 312° West 169 194 6,000  Climbing Chicago Center
Mon 08:07:29 PM 40.2928 -86.6764 313° West 177 204 5,900 -48 Descending Chicago Center
Mon 08:08:31 PM 40.3242 -86.7261 310° West 176 203 5,900  Level Chicago Center
Mon 08:09:33 PM 40.3547 -86.7772 308° West 178 205 5,900 48 Level Chicago Center
Mon 08:10:35 PM 40.3883 -86.8219 315° West 174 200 6,000 97 Climbing Chicago Center
Mon 08:11:37 PM 40.4283 -86.8783 313° West 176 203 6,100  Climbing Chicago Center
Mon 08:12:39 PM 40.4603 -86.9275 311° West 177 204 6,000 -48 Descending Chicago Center
Mon 08:13:41 PM 40.4922 -86.9772 310° West 178 205 6,000  Level Chicago Center
Mon 08:14:43 PM 40.5256 -87.0244 313° West 177 204 6,000  Level Chicago Center
Mon 08:15:45 PM 40.5639 -87.0597 325° Northwest 171 197 6,000 -49 Level Chicago Center
Mon 08:16:46 PM 40.6078 -87.0781 342° North 166 191 5,900  Descending Chicago Center
Mon 08:17:48 PM 40.6550 -87.1008 340° North 167 192 6,000  Climbing Chicago Center
Mon 08:18:50 PM 40.6964 -87.1258 335° Northwest 167 192 5,900  Descending Chicago Center
Mon 08:19:52 PM 40.7464 -87.1531 338° Northwest 165 190 6,000  Climbing Chicago Center
Mon 08:20:54 PM 40.7892 -87.1806 334° Northwest 171 197 5,900  Descending Chicago Center
Mon 08:21:56 PM 40.8308 -87.2053 336° Northwest 168 193 6,000 48 Climbing Chicago Center
Mon 08:22:58 PM 40.8731 -87.2269 339° North 166 191 6,000 48 Level Chicago Center
Mon 08:24:00 PM 40.9144 -87.2492 338° Northwest 162 186 6,100  Climbing Chicago Center
Mon 08:25:02 PM 40.9647 -87.2767 338° Northwest 165 190 6,000 48 Descending Chicago Center
Mon 08:26:04 PM 41.0050 -87.2997 337° Northwest 160 184 6,200 48 Climbing Chicago Center
Mon 08:27:06 PM 41.0469 -87.3208 339° North 160 184 6,100 -145 Descending Chicago Center
Mon 08:28:08 PM 41.0894 -87.3403 341° North 162 186 5,900 -339 Descending Chicago Center
Mon 08:29:10 PM 41.1350 -87.3658 337° Northwest 169 194 5,400 -581 Descending Chicago Center
Mon 08:30:12 PM 41.1833 -87.3911 339° North 178 205 4,700 -629 Descending Chicago Center
Mon 08:31:14 PM 41.2403 -87.4231 337° Northwest 184 212 4,100 -341 Descending Chicago Center
Mon 08:32:15 PM 41.2844 -87.4500 335° Northwest 182 209 4,000  Descending Chicago Center
Mon 08:33:17 PM 41.3244 -87.4736 336° Northwest 172 198 4,100 48 Climbing Chicago Center
Mon 08:34:19 PM 41.3628 -87.4958 336° Northwest 161 185 4,100  Level Chicago Center
Mon 08:35:21 PM 41.4011 -87.5167 338° Northwest 156 180 4,100  Level Chicago Center
Mon 08:36:23 PM 41.4472 -87.5450 335° Northwest 155 178 4,100 -48 Level Chicago Center
Mon 08:37:25 PM 41.4750 -87.5958 306° West 167 192 4,000  Descending Chicago Center
Mon 08:38:27 PM 41.5031 -87.6450 307° West 167 192 4,100  Climbing Chicago Center
Mon 08:39:29 PM 41.5322 -87.6931 309° West 168 193 4,000 -48 Descending Chicago Center
Mon 08:40:31 PM 41.5617 -87.7419 309° West 169 194 4,000  Level Chicago Center
Mon 08:41:33 PM 41.5967 -87.8003 309° West 170 196 4,000 -387 Level Chicago Center
Mon 08:42:35 PM 41.6278 -87.8500 310° West 172 198 3,200 -581 Descending Chicago Center
Mon 08:43:37 PM 41.6706 -87.8817 331° Northwest 179 206 2,800 -484 Descending Chicago Center
Mon 08:44:39 PM 41.7044 -87.8550 30° Northeast 153 176 2,200 -585 Descending Chicago Center
Mon 08:45:40 PM 41.7372 -87.8189 39° Northeast 151 174 1,600 -634 Descending Chicago Center
Mon 08:46:42 PM 41.7714 -87.7756 43° Northeast 146 168 900 -387 Descending Chicago Center
Mon 08:47:44 PM 41.7947 -87.7444 45° Northeast 142 163 800 -97 Descending Chicago Center

Login

Don't have an account? Register now (free) for customized features, flight alerts, and more!